Buxton, Oregon
Current Conditions -  °F | °C
As of 2:53 AM on Monday 20 Oct 2014 (Local Time) from KHIO Reporting Station
Light Rain Light Rain  
Wind Chill: 59°   Ceiling: 8000
Heat Index: 59°   Visibility: 10mi
Dew Point: 57°   Wind: 3mph
Humidity: 93%   Direction: NA
Pressure: 29.73"   Gusts: NA
Location:  45.69°N, 123.19°W
Report Text: KHIO 200953Z AUTO VRB03KT 10SM -RA BKN080 OVC095 15/14 A2973 RMK AO2 SLP065 P0002 T01500139 TSNO
Loading
Personal Weather Stations






























Interactive Weather Map
Tropical Storm Tracking
New forecast layout! Learn more

10-Day Weather Forecast

Advertisements
Track Severe Weather on mobile